createdAt,value
2018-06-01T00:01:32.373Z,39.63
2018-06-01T00:04:00.107Z,38.10
2018-06-01T00:06:28.396Z,36.50
2018-06-01T00:08:56.868Z,35.10
2018-06-01T00:11:25.726Z,31.80
2018-06-01T00:13:53.461Z,33.07
2018-06-01T00:16:21.194Z,31.30
2018-06-01T00:18:48.815Z,30.57
2018-06-01T00:21:16.698Z,28.17
2018-06-01T00:23:45.272Z,28.30
2018-06-01T00:26:13.911Z,30.10
2018-06-01T00:28:42.294Z,29.60
2018-06-01T00:31:10.277Z,30.67
2018-06-01T00:33:38.002Z,22.40
2018-06-01T00:36:07.832Z,22.50
2018-06-01T00:38:35.447Z,22.17
2018-06-01T00:41:03.213Z,19.60
2018-06-01T00:43:30.995Z,17.93
2018-06-01T00:45:58.611Z,16.27
2018-06-01T00:48:26.378Z,15.65
2018-06-01T00:50:54.081Z,12.73
2018-06-01T00:53:22.655Z,11.40
2018-06-01T00:55:50.490Z,9.97
2018-06-01T00:58:18.436Z,9.47
2018-06-01T01:00:46.736Z,7.75
2018-06-01T01:03:14.583Z,9.17
2018-06-01T01:05:43.203Z,7.93
2018-06-01T01:08:12.222Z,7.80
2018-06-01T01:10:39.992Z,7.03
2018-06-01T01:13:08.648Z,7.70
2018-06-01T01:15:37.205Z,6.27
2018-06-01T01:18:05.755Z,7.00
2018-06-01T01:20:34.293Z,5.73
2018-06-01T01:23:02.717Z,5.93
2018-06-01T01:25:30.461Z,6.30
2018-06-01T01:28:00.351Z,8.03
2018-06-01T01:30:28.587Z,7.43
2018-06-01T01:32:56.928Z,7.67
2018-06-01T01:35:25.496Z,7.40
2018-06-01T01:37:53.751Z,17.27
2018-06-01T01:40:21.552Z,22.43
2018-06-01T01:42:51.014Z,9.30
2018-06-01T01:45:18.825Z,10.20
2018-06-01T01:47:47.450Z,27.20
2018-06-01T01:50:15.146Z,22.97
2018-06-01T01:52:42.912Z,21.80
2018-06-01T01:55:10.650Z,22.43
2018-06-01T01:57:38.317Z,20.70
2018-06-01T02:00:06.932Z,19.70
2018-06-01T02:02:35.436Z,18.45
2018-06-01T02:05:04.382Z,18.77
2018-06-01T02:07:32.747Z,18.17
2018-06-01T02:10:00.403Z,17.60
2018-06-01T02:12:28.059Z,16.90
2018-06-01T02:14:55.702Z,19.17
2018-06-01T02:17:23.487Z,17.57
2018-06-01T02:19:51.548Z,17.80
2018-06-01T02:22:19.198Z,17.27
2018-06-01T02:24:47.625Z,16.37
2018-06-01T02:27:16.066Z,16.27
2018-06-01T02:29:43.763Z,17.30
2018-06-01T02:32:11.487Z,15.45
2018-06-01T02:34:39.156Z,16.93
2018-06-01T02:37:06.825Z,17.63
2018-06-01T02:39:34.510Z,17.67
2018-06-01T02:42:02.157Z,16.50
2018-06-01T02:44:29.842Z,17.30
2018-06-01T02:46:57.497Z,16.37
2018-06-01T02:49:25.159Z,16.50
2018-06-01T02:51:52.837Z,16.85
2018-06-01T02:54:20.558Z,16.95
2018-06-01T02:56:48.254Z,15.60
2018-06-01T02:59:19.826Z,15.03
2018-06-01T03:01:48.883Z,15.60
2018-06-01T03:04:19.602Z,16.30
2018-06-01T03:07:05.441Z,16.07
2018-06-01T03:09:33.503Z,16.10
2018-06-01T03:12:01.122Z,16.03
2018-06-01T03:14:28.841Z,16.20
2018-06-01T03:16:56.549Z,15.73
2018-06-01T03:19:28.123Z,15.95
2018-06-01T03:21:57.642Z,16.03
2018-06-01T03:24:26.948Z,14.83
2018-06-01T03:26:54.582Z,16.70
2018-06-01T03:29:22.239Z,16.40
2018-06-01T03:31:49.899Z,15.90
2018-06-01T03:34:17.592Z,15.13
2018-06-01T03:36:46.101Z,17.35
2018-06-01T03:39:13.796Z,16.77
2018-06-01T03:41:42.035Z,16.00
2018-06-01T03:44:09.663Z,14.70
2018-06-01T03:46:37.294Z,17.37
2018-06-01T03:49:05.028Z,18.50
2018-06-01T03:51:32.763Z,18.33
2018-06-01T03:54:00.526Z,15.87
2018-06-01T03:56:29.020Z,18.67
2018-06-01T03:58:57.079Z,18.33
2018-06-01T04:01:24.828Z,18.70
2018-06-01T04:03:52.547Z,19.17
2018-06-01T04:06:20.390Z,19.20
2018-06-01T04:08:48.134Z,17.55
2018-06-01T04:11:16.715Z,17.00
2018-06-01T04:13:44.373Z,18.43
2018-06-01T04:16:12.052Z,16.50
2018-06-01T04:18:39.880Z,19.40
2018-06-01T04:21:07.711Z,19.73
2018-06-01T04:23:35.412Z,17.60
2018-06-01T04:26:03.221Z,18.50
2018-06-01T04:28:31.694Z,18.33
2018-06-01T04:30:59.487Z,19.53
2018-06-01T04:33:27.947Z,18.00
2018-06-01T04:35:55.588Z,18.25
2018-06-01T04:38:23.261Z,18.60
2018-06-01T04:40:50.960Z,17.80
2018-06-01T04:43:18.659Z,17.50
2018-06-01T04:45:47.163Z,19.57
2018-06-01T04:48:14.826Z,19.40
2018-06-01T04:50:42.602Z,18.90
2018-06-01T04:53:10.453Z,18.83
2018-06-01T04:55:38.325Z,18.23
2018-06-01T04:58:06.842Z,17.70
2018-06-01T05:00:35.392Z,16.93
2018-06-01T05:03:03.107Z,16.23
2018-06-01T05:05:30.932Z,16.83
2018-06-01T05:07:58.608Z,16.60
2018-06-01T05:10:26.309Z,18.20
2018-06-01T05:12:54.020Z,16.13
2018-06-01T05:15:21.746Z,18.10
2018-06-01T05:17:49.493Z,15.85
2018-06-01T05:20:18.269Z,16.27
2018-06-01T05:22:45.960Z,16.33
2018-06-01T05:25:13.654Z,16.20
2018-06-01T05:27:41.577Z,17.10
2018-06-01T05:30:09.561Z,15.80
2018-06-01T05:32:37.363Z,14.83
2018-06-01T05:35:05.067Z,17.05
2018-06-01T05:37:32.810Z,16.30
2018-06-01T05:40:01.204Z,17.30
2018-06-01T05:42:29.277Z,18.50
2018-06-01T05:44:57.118Z,18.70
2018-06-01T05:47:24.881Z,18.35
2018-06-01T05:49:52.615Z,18.60
2018-06-01T05:52:20.302Z,17.80
2018-06-01T05:54:48.237Z,20.47
2018-06-01T05:57:15.982Z,20.97
2018-06-01T05:59:44.411Z,20.90
2018-06-01T06:02:12.131Z,20.90
2018-06-01T06:04:39.901Z,21.90
2018-06-01T06:07:07.649Z,21.20
2018-06-01T06:09:37.285Z,21.10
2018-06-01T06:12:05.009Z,23.50
2018-06-01T06:14:32.709Z,24.43
2018-06-01T06:17:00.499Z,24.37
2018-06-01T06:19:28.533Z,29.13
2018-06-01T06:21:56.656Z,28.83
2018-06-01T06:24:24.371Z,29.37
2018-06-01T06:26:52.221Z,35.13
2018-06-01T06:29:20.537Z,33.40
2018-06-01T06:31:48.411Z,32.73
2018-06-01T06:34:16.172Z,34.93
2018-06-01T06:36:44.025Z,38.63
2018-06-01T06:39:12.551Z,36.97
2018-06-01T06:41:40.651Z,37.70
2018-06-01T06:44:09.200Z,37.70
2018-06-01T06:46:37.023Z,37.03
2018-06-01T06:49:05.124Z,40.45
2018-06-01T06:51:32.801Z,40.87
2018-06-01T06:54:00.510Z,42.07
2018-06-01T06:56:29.158Z,41.87
2018-06-01T06:58:57.039Z,42.05
2018-06-01T07:01:24.690Z,42.20
2018-06-01T07:03:52.424Z,43.63
2018-06-01T07:06:20.769Z,45.55
2018-06-01T07:08:48.320Z,45.33
2018-06-01T07:11:16.689Z,48.43
2018-06-01T07:13:45.001Z,47.33
2018-06-01T07:16:12.605Z,52.27
2018-06-01T07:18:40.172Z,51.90
2018-06-01T07:21:07.724Z,50.70
2018-06-01T07:23:35.269Z,48.85
2018-06-01T07:26:02.834Z,52.85
2018-06-01T07:28:30.396Z,54.40
2018-06-01T07:30:57.965Z,55.40
2018-06-01T07:33:25.675Z,62.70
2018-06-01T07:35:53.910Z,57.27
2018-06-01T07:38:23.293Z,60.67
2018-06-01T07:40:50.834Z,62.67
2018-06-01T07:43:18.399Z,64.97
2018-06-01T07:45:45.991Z,63.50
2018-06-01T07:48:13.739Z,62.00
2018-06-01T07:50:41.266Z,60.50
2018-06-01T07:53:08.910Z,60.60
2018-06-01T07:55:37.205Z,64.80
2018-06-01T07:58:05.642Z,58.70
2018-06-01T08:00:33.220Z,57.80
2018-06-01T08:03:00.781Z,57.70
2018-06-01T08:05:28.334Z,58.65
2018-06-01T08:07:59.215Z,60.60
2018-06-01T08:10:27.530Z,59.20
2018-06-01T08:12:56.157Z,61.50
2018-06-01T08:15:26.450Z,65.10
2018-06-01T08:20:22.214Z,63.10
2018-06-01T08:22:50.660Z,58.75
2018-06-01T08:25:18.220Z,57.30
2018-06-01T08:27:45.784Z,58.55
2018-06-01T08:30:13.329Z,61.40
2018-06-01T08:32:40.916Z,60.20
2018-06-01T08:35:09.235Z,61.27
2018-06-01T08:37:37.618Z,55.37
2018-06-01T08:40:06.808Z,50.87
2018-06-01T08:42:38.926Z,51.23
2018-06-01T08:45:13.419Z,54.23
2018-06-01T08:48:08.254Z,55.40
2018-06-01T08:50:36.547Z,60.17
2018-06-01T08:53:04.110Z,60.45
2018-06-01T08:55:35.402Z,56.40
2018-06-01T08:58:03.060Z,56.50
2018-06-01T09:03:08.396Z,56.85
2018-06-01T10:39:00.111Z,48.00
2018-06-01T10:46:26.946Z,50.90
2018-06-01T10:48:58.495Z,50.20
2018-06-01T11:09:25.137Z,48.77
2018-06-01T11:11:52.682Z,45.13
2018-06-01T11:14:26.116Z,46.23
2018-06-01T11:16:53.727Z,48.30
2018-06-01T11:19:31.808Z,49.70
2018-06-01T11:22:06.830Z,46.45
2018-06-01T11:24:36.098Z,50.77
2018-06-01T11:29:37.770Z,48.47
2018-06-01T11:32:08.545Z,50.17
2018-06-01T11:34:40.726Z,46.90
2018-06-01T11:37:10.225Z,48.45
2018-06-01T11:39:46.040Z,50.55
2018-06-01T11:42:13.605Z,47.07
2018-06-01T11:44:41.170Z,48.43
2018-06-01T11:47:18.104Z,45.10
2018-06-01T11:49:45.677Z,44.90
2018-06-01T11:52:13.826Z,45.50
2018-06-01T11:54:41.442Z,46.30
2018-06-01T11:57:19.335Z,42.65
2018-06-01T11:59:53.126Z,41.30
2018-06-01T12:02:20.707Z,43.65
2018-06-01T12:04:48.318Z,43.63
2018-06-01T12:07:16.678Z,40.33
2018-06-01T12:09:44.880Z,37.67
2018-06-01T12:12:12.497Z,40.10
2018-06-01T12:14:40.073Z,34.40
2018-06-01T12:17:08.661Z,37.80
2018-06-01T12:19:36.215Z,37.60
2018-06-01T12:22:03.753Z,39.50
2018-06-01T12:24:33.402Z,38.60
2018-06-01T12:27:00.949Z,34.75
2018-06-01T12:29:28.558Z,36.70
2018-06-01T12:32:01.852Z,34.90
2018-06-01T12:41:59.153Z,38.70
2018-06-01T12:44:26.732Z,33.93
2018-06-01T12:46:54.533Z,34.40
2018-06-01T12:49:22.134Z,34.17
2018-06-01T12:51:49.793Z,34.25
2018-06-01T12:54:18.114Z,34.10
2018-06-01T12:56:45.992Z,34.10
2018-06-01T12:59:15.122Z,30.95
2018-06-01T13:01:42.669Z,33.33
2018-06-01T13:04:10.206Z,30.10
2018-06-01T13:06:38.749Z,30.70
2018-06-01T13:09:06.287Z,33.20
2018-06-01T13:11:34.599Z,33.57
2018-06-01T13:14:04.897Z,32.80
2018-06-01T13:16:33.186Z,31.77
2018-06-01T13:19:00.729Z,33.33
2018-06-01T13:21:29.470Z,31.10
2018-06-01T13:23:57.063Z,34.93
2018-06-01T13:26:24.594Z,33.30
2018-06-01T13:28:52.231Z,32.20
2018-06-01T13:31:20.559Z,31.05
2018-06-01T13:33:48.100Z,32.45
2018-06-01T13:36:15.651Z,31.00
2018-06-01T13:38:43.227Z,31.57
2018-06-01T13:41:10.768Z,34.60
2018-06-01T13:43:39.097Z,33.65
2018-06-01T13:46:06.648Z,33.85
2018-06-01T13:48:35.000Z,35.03
2018-06-01T13:51:02.732Z,31.60
2018-06-01T13:53:30.306Z,32.30
2018-06-01T13:55:57.852Z,31.17
2018-06-01T13:58:25.445Z,31.90
2018-06-01T14:00:52.992Z,34.40
2018-06-01T14:03:20.536Z,30.75
2018-06-01T14:05:48.168Z,33.20
2018-06-01T14:08:15.725Z,37.33
2018-06-01T14:10:43.947Z,34.10
2018-06-01T14:13:11.514Z,33.03
2018-06-01T14:15:39.069Z,30.57
2018-06-01T14:18:06.613Z,32.45
2018-06-01T14:20:34.205Z,29.70
2018-06-01T14:23:01.799Z,29.37
2018-06-01T14:25:29.323Z,31.37
2018-06-01T14:27:56.920Z,34.80
2018-06-01T14:30:25.375Z,32.80
2018-06-01T14:32:52.912Z,33.60
2018-06-01T14:35:20.501Z,33.85
2018-06-01T14:37:48.808Z,31.30
2018-06-01T14:40:16.400Z,30.23
2018-06-01T14:42:43.981Z,29.00
2018-06-01T14:45:12.396Z,29.87
2018-06-01T14:47:40.699Z,32.20
2018-06-01T14:50:08.259Z,31.80
2018-06-01T14:52:35.805Z,31.75
2018-06-01T14:55:03.532Z,30.50
2018-06-01T14:57:31.860Z,30.80
2018-06-01T14:59:59.409Z,32.33
2018-06-01T15:02:27.936Z,32.87
2018-06-01T15:04:55.669Z,32.00
2018-06-01T15:07:23.660Z,34.60
2018-06-01T15:09:51.610Z,33.60
2018-06-01T15:12:19.926Z,32.90
2018-06-01T15:14:48.655Z,33.30
2018-06-01T15:17:16.342Z,31.40
2018-06-01T15:19:44.238Z,28.57
2018-06-01T15:22:12.084Z,30.00
2018-06-01T15:29:34.790Z,31.40
2018-06-01T15:32:04.516Z,30.20
2018-06-01T15:34:34.286Z,26.45
2018-06-01T15:37:02.080Z,24.20
2018-06-01T15:41:59.919Z,29.70
2018-06-01T15:44:28.716Z,29.15
2018-06-01T15:46:57.238Z,28.70
2018-06-01T15:49:25.821Z,27.60
2018-06-01T15:51:55.156Z,27.37
2018-06-01T15:54:22.783Z,28.80
2018-06-01T15:56:52.915Z,31.50
2018-06-01T15:59:21.565Z,29.05
2018-06-01T16:01:49.555Z,27.20
2018-06-01T16:04:17.544Z,30.30
2018-06-01T16:06:45.250Z,28.30
2018-06-01T16:09:13.083Z,29.95
2018-06-01T16:11:40.957Z,31.55
2018-06-01T16:14:08.763Z,30.40
2018-06-01T16:19:05.125Z,33.30
2018-06-01T16:24:08.472Z,33.65
2018-06-01T16:26:37.056Z,33.95
2018-06-01T16:29:05.728Z,35.40
2018-06-01T16:31:36.462Z,35.47
2018-06-01T16:34:04.998Z,35.70
2018-06-01T16:36:33.525Z,34.00
2018-06-01T16:39:01.603Z,36.15
2018-06-01T16:41:29.310Z,57.35
2018-06-01T16:43:57.058Z,40.10
2018-06-01T16:46:25.049Z,37.25
2018-06-01T16:48:52.808Z,40.20
2018-06-01T16:51:20.606Z,40.20
2018-06-01T16:53:49.394Z,40.50
2018-06-01T16:56:17.181Z,41.90
2018-06-01T16:58:46.454Z,40.15
2018-06-01T17:01:14.637Z,41.05
2018-06-01T17:03:45.191Z,43.10
2018-06-01T17:06:14.555Z,43.00
2018-06-01T17:08:43.624Z,41.40
2018-06-01T17:11:12.497Z,37.70
2018-06-01T17:13:40.344Z,36.03
2018-06-01T17:16:08.754Z,37.50
2018-06-01T17:18:37.593Z,37.17
2018-06-01T17:21:05.756Z,35.85
2018-06-01T17:23:33.483Z,36.15
2018-06-01T17:26:01.597Z,32.70
2018-06-01T17:28:30.397Z,33.17
2018-06-01T17:30:58.808Z,33.30
2018-06-01T17:33:29.941Z,29.63
2018-06-01T17:35:58.377Z,31.87
2018-06-01T17:38:26.394Z,29.53
2018-06-01T17:40:54.115Z,28.23
2018-06-01T17:43:23.642Z,28.67
2018-06-01T17:45:52.258Z,27.10
2018-06-01T17:48:20.831Z,25.73
2018-06-01T17:50:49.709Z,28.17
2018-06-01T17:53:17.674Z,27.90
2018-06-01T17:55:46.287Z,29.53
2018-06-01T17:58:14.301Z,27.25
2018-06-01T18:00:42.094Z,26.90
2018-06-01T18:03:10.614Z,23.45
2018-06-01T18:05:38.326Z,25.95
2018-06-01T18:08:06.082Z,23.65
2018-06-01T18:10:34.608Z,25.60
2018-06-01T18:13:03.262Z,23.15
2018-06-01T18:15:32.080Z,26.10
2018-06-01T18:18:02.285Z,22.90
2018-06-01T18:20:32.287Z,22.70
2018-06-01T18:22:59.986Z,24.10
2018-06-01T18:25:29.245Z,22.50
2018-06-01T18:27:57.312Z,22.60
2018-06-01T18:30:24.934Z,21.60
2018-06-01T18:32:52.787Z,26.60
2018-06-01T18:35:20.943Z,22.55
2018-06-01T18:37:48.767Z,21.95
2018-06-01T18:40:17.621Z,21.10
2018-06-01T18:42:45.403Z,21.40
2018-06-01T18:45:15.984Z,61.50
2018-06-01T18:47:44.832Z,21.55
2018-06-01T18:50:13.426Z,21.75
2018-06-01T18:52:43.832Z,20.60
2018-06-01T19:00:06.251Z,24.85
2018-06-01T19:02:36.666Z,24.00
2018-06-01T19:05:08.683Z,21.85
2018-06-01T19:07:37.127Z,23.95
2018-06-01T19:10:04.862Z,22.75
2018-06-01T19:12:33.446Z,22.55
2018-06-01T19:15:02.816Z,25.10
2018-06-01T19:17:32.526Z,25.63
2018-06-01T19:20:00.987Z,23.00
2018-06-01T19:22:29.001Z,22.85
2018-06-01T19:24:57.018Z,25.55
2018-06-01T19:27:24.735Z,27.90
2018-06-01T19:29:52.480Z,22.33
2018-06-01T19:32:25.703Z,23.30
2018-06-01T19:34:53.518Z,25.70
2018-06-01T19:37:21.197Z,25.40
2018-06-01T19:39:49.462Z,25.00
2018-06-01T19:42:17.326Z,24.30
2018-06-01T19:44:45.931Z,25.30
2018-06-01T19:47:13.803Z,22.50
2018-06-01T19:49:42.589Z,23.15
2018-06-01T19:52:11.189Z,28.65
2018-06-01T19:54:39.144Z,23.35
2018-06-01T19:57:07.008Z,26.20
2018-06-01T19:59:35.662Z,25.80
2018-06-01T20:02:03.687Z,26.50
2018-06-01T20:04:42.547Z,25.90
2018-06-01T20:07:10.432Z,28.60
2018-06-01T20:09:39.607Z,28.40
2018-06-01T20:12:09.316Z,28.00
2018-06-01T20:17:19.235Z,28.85
2018-06-01T20:19:46.916Z,30.40
2018-06-01T20:22:21.890Z,30.25
2018-06-01T20:24:49.837Z,30.10
2018-06-01T20:27:18.011Z,28.30
2018-06-01T20:29:46.673Z,29.15
2018-06-01T20:32:14.678Z,31.00
2018-06-01T20:34:47.934Z,32.25
2018-06-01T20:40:06.170Z,34.15
2018-06-01T20:42:33.928Z,34.00
2018-06-01T20:45:01.543Z,34.85
2018-06-01T20:47:30.019Z,32.90
2018-06-01T20:49:57.682Z,34.05
2018-06-01T20:52:25.399Z,34.10
2018-06-01T20:54:53.833Z,35.85
2018-06-01T20:57:21.711Z,35.40
2018-06-01T20:59:49.516Z,36.00
2018-06-01T21:02:17.413Z,33.70
2018-06-01T21:04:45.150Z,36.60
2018-06-01T21:09:43.007Z,39.00
2018-06-01T21:12:11.453Z,36.30
2018-06-01T21:17:06.643Z,38.40
2018-06-01T21:26:56.622Z,35.20
2018-06-01T21:31:52.747Z,22.80
